Back to Top

Language: 

My Weather Underground Personal Weather Station Historical Data with Graphs...

Delerius Weather Station Historical Data
Daily Summary for December 31, 2017 Units:  Metric    English   Both
« Previous Day
Next Day »
Daily Weekly Monthly Yearly Custom
  High: Low: Average:
Temperature: 11.8 °C 4.7 °C 8.2 °C
Dew Point: 9.7 °C 3.2 °C 5.2 °C
Humidity: 96 % 66 % 82 %
Wind Speed: 38.6 km/h 0 km/h 21.1 km/h
Wind Gust: 62.8 km/h - -
Wind:- - SW
Pressure: 992.8 hPa 985.3 hPa -
Precipitation: 3.56 mm    
Historical Graphs
 
 
Tabular Data for December 31, 2017
Time Temperature Dew Point Pressure Wind Wind Speed Wind Gust Humidity Rainfall Rate (Hourly) solar Conditions
00:04 8.1 °C 5.2 °C 992.8 hPa South 6.4 km/h 11.3 km/h 82 % 0 mm 0 W/m2
00:09 8.1 °C 5.2 °C 992.8 hPa SSE 6.4 km/h 11.3 km/h 82 % 0 mm 0 W/m2
00:14 8 °C 5.1 °C 992.4 hPa SE 9.7 km/h 14.5 km/h 82 % 0 mm 0 W/m2
00:15 8 °C 5.1 °C 992.4 hPa SE 9.7 km/h 14.5 km/h 82 % 0 mm 0 W/m2
00:20 8 °C 5.1 °C 992.8 hPa SSE 9.7 km/h 12.9 km/h 82 % 0 mm 0 W/m2
00:24 8 °C 5.1 °C 992.4 hPa SE 6.4 km/h 11.3 km/h 82 % 0 mm 0 W/m2
00:27 7.9 °C 5.2 °C 992.4 hPa SE 4.8 km/h 12.9 km/h 83 % 0 mm 0 W/m2
00:31 7.9 °C 5.2 °C 992.1 hPa ESE 8 km/h 16.1 km/h 83 % 0 mm 0 W/m2
00:33 7.9 °C 5.2 °C 992.1 hPa ESE 9.7 km/h 14.5 km/h 83 % 0 mm 0 W/m2
00:38 7.8 °C 5.1 °C 992.1 hPa SE 9.7 km/h 16.1 km/h 83 % 0 mm 0 W/m2
00:43 7.8 °C 5.3 °C 991.8 hPa SSE 9.7 km/h 14.5 km/h 84 % 0 mm 0 W/m2
00:46 7.8 °C 5.3 °C 991.4 hPa SE 11.3 km/h 17.7 km/h 84 % 0 mm 0 W/m2
00:51 7.7 °C 5.5 °C 991.4 hPa SSE 14.5 km/h 22.5 km/h 86 % 0 mm 0 W/m2
00:55 7.6 °C 5.6 °C 991.8 hPa SSE 8 km/h 17.7 km/h 87 % 0 mm 0 W/m2
00:58 7.6 °C 5.6 °C 991.4 hPa South 9.7 km/h 14.5 km/h 87 % 0 mm 0 W/m2
01:00 7.5 °C 5.7 °C 991.4 hPa SSE 11.3 km/h 20.9 km/h 88 % 0 mm 0 W/m2
01:05 7.4 °C 5.7 °C 990.7 hPa SE 14.5 km/h 20.9 km/h 89 % 0.25 mm 0 W/m2
01:10 7.3 °C 5.8 °C 990.4 hPa SE 14.5 km/h 22.5 km/h 90 % 0.51 mm 0 W/m2
01:15 7.2 °C 5.8 °C 990.4 hPa SE 16.1 km/h 24.1 km/h 91 % 0.51 mm 0 W/m2
01:16 7.2 °C 5.8 °C 990.4 hPa SE 16.1 km/h 24.1 km/h 91 % 0.51 mm 0 W/m2
01:21 7.1 °C 5.9 °C 990.1 hPa SE 14.5 km/h 22.5 km/h 92 % 0.76 mm 0 W/m2
01:22 7.1 °C 5.9 °C 990.1 hPa SE 14.5 km/h 22.5 km/h 92 % 0.76 mm 0 W/m2
01:27 7.1 °C 5.9 °C 989.7 hPa SE 16.1 km/h 22.5 km/h 92 % 1.02 mm 0 W/m2
01:32 7 °C 5.9 °C 989.4 hPa SE 12.9 km/h 22.5 km/h 93 % 1.27 mm 0 W/m2
01:34 7 °C 5.9 °C 989.7 hPa SE 12.9 km/h 22.5 km/h 93 % 1.27 mm 0 W/m2
01:35 7 °C 5.9 °C 989.7 hPa SE 14.5 km/h 25.7 km/h 93 % 1.27 mm 0 W/m2
01:40 7 °C 5.9 °C 989.4 hPa SSE 12.9 km/h 19.3 km/h 93 % 1.52 mm 0 W/m2
01:45 7 °C 6.1 °C 989.4 hPa SSE 12.9 km/h 22.5 km/h 94 % 1.52 mm 0 W/m2
01:48 7 °C 6.1 °C 989.4 hPa SSE 11.3 km/h 24.1 km/h 94 % 1.52 mm 0 W/m2
01:53 7.1 °C 6.2 °C 989.1 hPa SSE 16.1 km/h 22.5 km/h 94 % 1.52 mm 0 W/m2
01:54 7.1 °C 6.2 °C 989.1 hPa SSE 14.5 km/h 20.9 km/h 94 % 1.52 mm 0 W/m2
01:59 7.1 °C 6.2 °C 989.1 hPa SSE 12.9 km/h 22.5 km/h 94 % 1.52 mm 0 W/m2
02:00 7.1 °C 6.2 °C 988.7 hPa SSE 14.5 km/h 22.5 km/h 94 % 1.52 mm 0 W/m2
02:05 7.1 °C 6.2 °C 989.1 hPa SSE 12.9 km/h 17.7 km/h 94 % 1.52 mm 0 W/m2
02:10 7.1 °C 6.2 °C 988.7 hPa South 9.7 km/h 19.3 km/h 94 % 1.27 mm 0 W/m2
02:11 7.1 °C 6.3 °C 988.7 hPa South 11.3 km/h 19.3 km/h 95 % 1.27 mm 0 W/m2
02:14 7.1 °C 6.3 °C 988.7 hPa South 14.5 km/h 22.5 km/h 95 % 1.02 mm 0 W/m2
02:19 7.2 °C 6.4 °C 988.7 hPa South 12.9 km/h 22.5 km/h 95 % 1.02 mm 0 W/m2
02:21 7.2 °C 6.4 °C 988.7 hPa South 12.9 km/h 24.1 km/h 95 % 1.02 mm 0 W/m2
02:24 7.3 °C 6.6 °C 988.7 hPa South 14.5 km/h 30.6 km/h 95 % 0.76 mm 0 W/m2
02:27 7.3 °C 6.6 °C 988.7 hPa SSW 11.3 km/h 29 km/h 95 % 0.51 mm 0 W/m2
02:30 7.4 °C 6.7 °C 988.7 hPa SSW 11.3 km/h 19.3 km/h 95 % 0.51 mm 0 W/m2
02:32 7.4 °C 6.7 °C 988.7 hPa SSW 11.3 km/h 19.3 km/h 95 % 0.51 mm 0 W/m2
02:37 7.6 °C 6.8 °C 988.4 hPa SSW 11.3 km/h 17.7 km/h 95 % 0.51 mm 0 W/m2
02:38 7.6 °C 6.8 °C 988.4 hPa SSW 11.3 km/h 16.1 km/h 95 % 0.51 mm 0 W/m2
02:40 7.6 °C 6.8 °C 988.4 hPa South 11.3 km/h 16.1 km/h 95 % 0.51 mm 0 W/m2
02:43 7.7 °C 6.9 °C 988 hPa South 11.3 km/h 16.1 km/h 95 % 0.51 mm 0 W/m2
02:48 7.8 °C 7.2 °C 987.7 hPa South 14.5 km/h 25.7 km/h 96 % 0.51 mm 0 W/m2
02:51 7.9 °C 7.3 °C 987.7 hPa SSW 11.3 km/h 24.1 km/h 96 % 0.51 mm 0 W/m2
02:55 8.1 °C 7.5 °C 987.7 hPa SSW 14.5 km/h 20.9 km/h 96 % 0.51 mm 0 W/m2
03:00 8.4 °C 7.8 °C 988 hPa SW 14.5 km/h 22.5 km/h 96 % 0.51 mm 0 W/m2
03:05 8.7 °C 8.1 °C 987.7 hPa SW 11.3 km/h 22.5 km/h 96 % 0.51 mm 0 W/m2
03:06 8.8 °C 8.2 °C 987.7 hPa SW 14.5 km/h 22.5 km/h 96 % 0.51 mm 0 W/m2
03:07 8.8 °C 8.2 °C 987.7 hPa SW 14.5 km/h 22.5 km/h 96 % 0.51 mm 0 W/m2
03:14 9.3 °C 8.7 °C 987.7 hPa SW 17.7 km/h 29 km/h 96 % 0.51 mm 0 W/m2
03:21 9.8 °C 9.2 °C 987.7 hPa WSW 20.9 km/h 33.8 km/h 96 % 0.25 mm 0 W/m2
03:23 9.9 °C 9.3 °C 987.4 hPa WSW 20.9 km/h 33.8 km/h 96 % 0.25 mm 0 W/m2
03:24 10 °C 9.4 °C 987.4 hPa WSW 19.3 km/h 33.8 km/h 96 % 0.25 mm 0 W/m2
03:29 10.4 °C 9.6 °C 987.4 hPa WSW 27.4 km/h 43.5 km/h 95 % 0.25 mm 0 W/m2
03:30 10.5 °C 9.7 °C 987.4 hPa WSW 27.4 km/h 43.5 km/h 95 % 0.25 mm 0 W/m2
03:37 10.9 °C 9.7 °C 987 hPa WSW 22.5 km/h 37 km/h 92 % 0 mm 0 W/m2
03:38 10.9 °C 9.5 °C 987.4 hPa WSW 24.1 km/h 46.7 km/h 91 % 0 mm 0 W/m2
03:43 11.2 °C 9.4 °C 987 hPa WSW 29 km/h 49.9 km/h 89 % 0 mm 0 W/m2
03:44 11.2 °C 9.4 °C 987 hPa WSW 30.6 km/h 49.9 km/h 89 % 0 mm 0 W/m2
03:49 11.3 °C 9.4 °C 987 hPa WSW 22.5 km/h 33.8 km/h 88 % 0 mm 0 W/m2
03:54 11.4 °C 9.3 °C 986.7 hPa WSW 25.7 km/h 41.8 km/h 87 % 0 mm 0 W/m2
03:55 11.4 °C 9.3 °C 986.7 hPa SW 22.5 km/h 41.8 km/h 87 % 0 mm 0 W/m2
04:00 11.4 °C 9.3 °C 986.7 hPa WSW 20.9 km/h 35.4 km/h 87 % 0 mm 0 W/m2
04:04 11.4 °C 9.2 °C 986.7 hPa WSW 29 km/h 41.8 km/h 86 % 0 mm 0 W/m2
04:09 11.4 °C 9.2 °C 987 hPa WSW 25.7 km/h 40.2 km/h 86 % 0 mm 0 W/m2
04:12 11.4 °C 9.2 °C 987 hPa WSW 24.1 km/h 40.2 km/h 86 % 0 mm 0 W/m2
04:17 11.4 °C 8.9 °C 987 hPa WSW 27.4 km/h 38.6 km/h 85 % 0 mm 0 W/m2
04:18 11.4 °C 8.9 °C 986.7 hPa WSW 27.4 km/h 38.6 km/h 85 % 0 mm 0 W/m2
04:19 11.4 °C 8.9 °C 986.7 hPa SW 25.7 km/h 35.4 km/h 85 % 0 mm 0 W/m2
04:24 11.4 °C 8.9 °C 987 hPa WSW 27.4 km/h 51.5 km/h 85 % 0 mm 0 W/m2
04:25 11.4 °C 8.9 °C 986.7 hPa WSW 27.4 km/h 51.5 km/h 85 % 0 mm 0 W/m2
04:30 11.6 °C 9 °C 986.7 hPa SW 30.6 km/h 46.7 km/h 84 % 0 mm 0 W/m2
04:31 11.6 °C 9 °C 986.7 hPa SW 32.2 km/h 46.7 km/h 84 % 0 mm 0 W/m2
04:36 11.6 °C 9 °C 986.3 hPa SW 30.6 km/h 59.5 km/h 84 % 0 mm 0 W/m2
04:38 11.6 °C 8.8 °C 986 hPa SW 30.6 km/h 59.5 km/h 83 % 0 mm 0 W/m2
04:39 11.6 °C 8.8 °C 986 hPa SW 30.6 km/h 46.7 km/h 83 % 0 mm 0 W/m2
04:43 11.7 °C 8.9 °C 986 hPa SW 35.4 km/h 62.8 km/h 83 % 0 mm 0 W/m2
04:46 11.8 °C 8.8 °C 985.7 hPa SW 35.4 km/h 51.5 km/h 82 % 0 mm 0 W/m2
04:48 11.8 °C 8.8 °C 986 hPa SW 29 km/h 46.7 km/h 82 % 0 mm 0 W/m2
04:53 11.8 °C 9 °C 986.3 hPa WSW 27.4 km/h 45.1 km/h 83 % 0 mm 0 W/m2
04:58 11.8 °C 8.8 °C 986.7 hPa WSW 24.1 km/h 45.1 km/h 82 % 0 mm 0 W/m2
04:59 11.8 °C 8.8 °C 986.7 hPa WSW 24.1 km/h 45.1 km/h 82 % 0 mm 0 W/m2
05:04 11.8 °C 8.8 °C 986.3 hPa WSW 22.5 km/h 33.8 km/h 82 % 0 mm 0 W/m2
05:09 11.8 °C 8.8 °C 986.7 hPa WSW 22.5 km/h 38.6 km/h 82 % 0 mm 0 W/m2
05:14 11.7 °C 8.6 °C 986.3 hPa SW 32.2 km/h 56.3 km/h 81 % 0 mm 0 W/m2
05:15 11.7 °C 8.6 °C 986.3 hPa SW 33.8 km/h 56.3 km/h 81 % 0 mm 0 W/m2
05:20 11.8 °C 8.4 °C 986.3 hPa SW 30.6 km/h 51.5 km/h 80 % 0 mm 0 W/m2
05:25 11.8 °C 8.4 °C 986.3 hPa SW 33.8 km/h 53.1 km/h 80 % 0 mm 0 W/m2
05:30 11.8 °C 8.3 °C 986.3 hPa SW 32.2 km/h 51.5 km/h 79 % 0 mm 0 W/m2
05:31 11.7 °C 8.2 °C 986.3 hPa SW 32.2 km/h 51.5 km/h 79 % 0 mm 0 W/m2
05:36 11.7 °C 8.2 °C 986.3 hPa SW 38.6 km/h 59.5 km/h 79 % 0 mm 0 W/m2
05:37 11.7 °C 8.2 °C 986.3 hPa SW 37 km/h 59.5 km/h 79 % 0 mm 0 W/m2
05:40 11.6 °C 8.1 °C 986.3 hPa WSW 32.2 km/h 53.1 km/h 79 % 0 mm 0 W/m2
05:43 11.6 °C 7.9 °C 986.3 hPa WSW 27.4 km/h 45.1 km/h 78 % 0 mm 0 W/m2
05:48 11.5 °C 7.8 °C 986.3 hPa WSW 38.6 km/h 57.9 km/h 78 % 0 mm 0 W/m2
05:50 11.6 °C 7.9 °C 986.7 hPa WSW 35.4 km/h 51.5 km/h 78 % 0 mm 0 W/m2
05:51 11.5 °C 7.6 °C 986.3 hPa WSW 33.8 km/h 49.9 km/h 77 % 0 mm 0 W/m2
05:56 11.4 °C 7.5 °C 986.7 hPa WSW 30.6 km/h 48.3 km/h 77 % 0 mm 0 W/m2
06:01 11.3 °C 7.4 °C 986.7 hPa SW 35.4 km/h 62.8 km/h 77 % 0 mm 0 W/m2
06:04 11.3 °C 7.4 °C 986.7 hPa SW 29 km/h 41.8 km/h 77 % 0 mm 0 W/m2
06:06 11.2 °C 7.3 °C 986.3 hPa SW 30.6 km/h 56.3 km/h 77 % 0 mm 0 W/m2
06:09 11.2 °C 7.3 °C 986.3 hPa WSW 37 km/h 53.1 km/h 77 % 0 mm 0 W/m2
06:14 11.1 °C 7.2 °C 986.3 hPa SW 29 km/h 49.9 km/h 77 % 0 mm 0 W/m2
06:15 11.1 °C 7.2 °C 986.7 hPa SW 29 km/h 45.1 km/h 77 % 0 mm 0 W/m2
06:20 11.1 °C 7.2 °C 986.3 hPa WSW 25.7 km/h 37 km/h 77 % 0 mm 0 W/m2
06:26 11 °C 6.9 °C 986.7 hPa WSW 30.6 km/h 46.7 km/h 76 % 0 mm 0 W/m2
06:31 10.9 °C 6.8 °C 986.7 hPa WSW 32.2 km/h 49.9 km/h 76 % 0 mm 0 W/m2
06:35 10.9 °C 6.8 °C 986.7 hPa WSW 27.4 km/h 46.7 km/h 76 % 0 mm 0 W/m2
06:36 10.9 °C 6.8 °C 986.7 hPa WSW 29 km/h 46.7 km/h 76 % 0 mm 0 W/m2
06:41 10.9 °C 6.8 °C 987 hPa WSW 27.4 km/h 48.3 km/h 76 % 0 mm 0 W/m2
06:42 10.8 °C 6.7 °C 987 hPa WSW 35.4 km/h 56.3 km/h 76 % 0 mm 0 W/m2
06:47 10.8 °C 6.7 °C 987 hPa SW 33.8 km/h 53.1 km/h 76 % 0 mm 0 W/m2
06:48 10.8 °C 6.7 °C 987 hPa WSW 37 km/h 53.1 km/h 76 % 0 mm 0 W/m2
06:53 10.8 °C 6.7 °C 987 hPa WSW 24.1 km/h 37 km/h 76 % 0 mm 0 W/m2
06:54 10.8 °C 6.7 °C 987 hPa WSW 24.1 km/h 37 km/h 76 % 0 mm 0 W/m2
06:59 10.7 °C 6.8 °C 987 hPa WSW 25.7 km/h 40.2 km/h 77 % 0 mm 0 W/m2
07:04 10.7 °C 6.7 °C 987 hPa WSW 33.8 km/h 48.3 km/h 76 % 0 mm 0 W/m2
07:09 10.6 °C 6.6 °C 987 hPa WSW 25.7 km/h 41.8 km/h 76 % 0 mm 0 W/m2
07:11 10.6 °C 6.3 °C 987 hPa WSW 27.4 km/h 46.7 km/h 75 % 0 mm 0 W/m2
07:15 10.6 °C 6.2 °C 987 hPa WSW 29 km/h 46.7 km/h 74 % 0 mm 0 W/m2
07:16 10.6 °C 6.2 °C 987 hPa WSW 27.4 km/h 43.5 km/h 74 % 0 mm 0 W/m2
07:21 10.6 °C 5.9 °C 987 hPa WSW 32.2 km/h 45.1 km/h 73 % 0 mm 0 W/m2
07:23 10.5 °C 5.9 °C 987 hPa WSW 29 km/h 45.1 km/h 73 % 0 mm 0 W/m2
07:27 10.5 °C 6.1 °C 987.4 hPa WSW 29 km/h 40.2 km/h 74 % 0 mm 0 W/m2
07:29 10.4 °C 5.9 °C 987.4 hPa WSW 29 km/h 49.9 km/h 74 % 0 mm 0 W/m2
07:34 10.3 °C 5.9 °C 987.4 hPa WSW 27.4 km/h 46.7 km/h 74 % 0 mm 0 W/m2
07:36 10.3 °C 5.7 °C 987.4 hPa WSW 25.7 km/h 45.1 km/h 73 % 0 mm 0 W/m2
07:37 10.3 °C 5.7 °C 987.4 hPa WSW 29 km/h 45.1 km/h 73 % 0 mm 0 W/m2
07:42 10.2 °C 4.8 °C 987.4 hPa WSW 33.8 km/h 51.5 km/h 69 % 0 mm 0 W/m2
07:43 10.2 °C 4.8 °C 987.7 hPa WSW 32.2 km/h 48.3 km/h 69 % 0 mm 0 W/m2
07:48 10.1 °C 4.2 °C 987.7 hPa WSW 37 km/h 51.5 km/h 67 % 0 mm 0 W/m2
07:51 10.1 °C 4.1 °C 987.7 hPa WSW 30.6 km/h 49.9 km/h 66 % 0 mm 0 W/m2
07:54 10.1 °C 4.2 °C 987.7 hPa WSW 24.1 km/h 45.1 km/h 67 % 0 mm 0 W/m2
07:59 9.9 °C 4.1 °C 987.7 hPa WSW 32.2 km/h 49.9 km/h 67 % 0 mm 0 W/m2
08:00 9.9 °C 4.1 °C 987.7 hPa WSW 25.7 km/h 43.5 km/h 67 % 0 mm 0 W/m2
08:03 9.8 °C 4.2 °C 987.7 hPa WSW 30.6 km/h 49.9 km/h 68 % 0 mm 0 W/m2
08:08 9.7 °C 4.3 °C 987.7 hPa WSW 27.4 km/h 48.3 km/h 69 % 0 mm 0 W/m2
08:10 9.6 °C 4.2 °C 987.7 hPa WSW 33.8 km/h 48.3 km/h 69 % 0 mm 0 W/m2
08:11 9.6 °C 4.2 °C 987.7 hPa WSW 35.4 km/h 48.3 km/h 69 % 0 mm 0 W/m2
08:16 9.5 °C 4.3 °C 988 hPa WSW 29 km/h 51.5 km/h 70 % 0 mm 0 W/m2
08:19 9.4 °C 4.2 °C 988 hPa WSW 29 km/h 48.3 km/h 70 % 0 mm 0 W/m2
08:24 9.3 °C 4.1 °C 988 hPa WSW 33.8 km/h 51.5 km/h 70 % 0 mm 0 W/m2
08:29 9.2 °C 4 °C 988.4 hPa WSW 27.4 km/h 43.5 km/h 70 % 0 mm 5 W/m2
08:33 9.1 °C 3.9 °C 988.4 hPa WSW 30.6 km/h 41.8 km/h 70 % 0 mm 7 W/m2
08:38 9 °C 3.8 °C 988.4 hPa WSW 33.8 km/h 46.7 km/h 70 % 0 mm 12 W/m2
08:43 8.9 °C 3.7 °C 988.4 hPa WSW 27.4 km/h 46.7 km/h 70 % 0 mm 14 W/m2
08:48 8.8 °C 3.8 °C 988.4 hPa WSW 27.4 km/h 41.8 km/h 71 % 0 mm 12 W/m2
08:52 8.7 °C 3.9 °C 988.4 hPa WSW 22.5 km/h 38.6 km/h 72 % 0 mm 11 W/m2
08:56 8.7 °C 3.7 °C 988.4 hPa WSW 22.5 km/h 32.2 km/h 71 % 0 mm 9 W/m2
09:01 8.7 °C 3.7 °C 988.4 hPa WSW 25.7 km/h 37 km/h 71 % 0 mm 12 W/m2
09:02 8.6 °C 3.6 °C 988.4 hPa WSW 24.1 km/h 37 km/h 71 % 0 mm 12 W/m2
09:07 8.7 °C 3.6 °C 988.4 hPa WSW 24.1 km/h 33.8 km/h 70 % 0 mm 14 W/m2
09:09 8.6 °C 3.4 °C 988.4 hPa SW 27.4 km/h 49.9 km/h 70 % 0 mm 16 W/m2
09:12 8.6 °C 3.4 °C 988.4 hPa WSW 24.1 km/h 40.2 km/h 70 % 0 mm 18 W/m2
09:17 8.6 °C 3.6 °C 988.4 hPa WSW 32.2 km/h 46.7 km/h 71 % 0 mm 26 W/m2
09:19 8.6 °C 3.6 °C 988.4 hPa WSW 30.6 km/h 45.1 km/h 71 % 0 mm 30 W/m2
09:24 8.6 °C 3.6 °C 988.4 hPa WSW 27.4 km/h 43.5 km/h 71 % 0 mm 30 W/m2
09:25 8.6 °C 3.6 °C 988.4 hPa WSW 27.4 km/h 43.5 km/h 71 % 0 mm 30 W/m2
09:27 8.6 °C 3.6 °C 988.4 hPa WSW 29 km/h 45.1 km/h 71 % 0 mm 32 W/m2
09:31 8.6 °C 3.6 °C 988.4 hPa WSW 30.6 km/h 48.3 km/h 71 % 0 mm 32 W/m2
09:36 8.5 °C 3.7 °C 988.4 hPa WSW 27.4 km/h 48.3 km/h 72 % 0 mm 30 W/m2
09:41 8.5 °C 3.7 °C 988.4 hPa WSW 27.4 km/h 41.8 km/h 72 % 0 mm 28 W/m2
09:43 8.5 °C 3.7 °C 988.4 hPa WSW 30.6 km/h 48.3 km/h 72 % 0 mm 32 W/m2
09:48 8.6 °C 3.8 °C 988.4 hPa WSW 32.2 km/h 49.9 km/h 72 % 0 mm 37 W/m2
09:50 8.6 °C 3.8 °C 988.4 hPa WSW 33.8 km/h 49.9 km/h 72 % 0 mm 37 W/m2
09:55 8.6 °C 3.8 °C 988.4 hPa WSW 27.4 km/h 43.5 km/h 72 % 0 mm 40 W/m2
09:56 8.6 °C 3.8 °C 988.4 hPa WSW 27.4 km/h 37 km/h 72 % 0 mm 42 W/m2
10:01 8.6 °C 3.8 °C 988.4 hPa WSW 24.1 km/h 45.1 km/h 72 % 0 mm 53 W/m2
10:02 8.5 °C 3.7 °C 988.4 hPa WSW 24.1 km/h 45.1 km/h 72 % 0 mm 47 W/m2
10:07 8.5 °C 3.7 °C 988.4 hPa WSW 20.9 km/h 32.2 km/h 72 % 0 mm 40 W/m2
10:08 8.5 °C 3.7 °C 988.4 hPa WSW 25.7 km/h 40.2 km/h 72 % 0 mm 40 W/m2
10:13 8.5 °C 3.7 °C 988.4 hPa WSW 27.4 km/h 43.5 km/h 72 % 0 mm 53 W/m2
10:18 8.5 °C 3.9 °C 988.4 hPa WSW 27.4 km/h 41.8 km/h 73 % 0 mm 56 W/m2
10:20 8.5 °C 3.9 °C 988.4 hPa WSW 27.4 km/h 41.8 km/h 73 % 0 mm 56 W/m2
10:21 8.5 °C 3.9 °C 988.4 hPa WSW 25.7 km/h 37 km/h 73 % 0 mm 113 W/m2
10:25 8.5 °C 4.1 °C 988.4 hPa WSW 30.6 km/h 40.2 km/h 74 % 0 mm 156 W/m2
10:30 8.6 °C 4.2 °C 988.4 hPa WSW 27.4 km/h 45.1 km/h 74 % 0 mm 160 W/m2
10:34 8.7 °C 4.3 °C 988.4 hPa WSW 20.9 km/h 32.2 km/h 74 % 0 mm 125 W/m2
10:36 8.7 °C 4.3 °C 988.4 hPa WSW 24.1 km/h 40.2 km/h 74 % 0 mm 104 W/m2
10:41 8.8 °C 4.4 °C 988 hPa WSW 30.6 km/h 45.1 km/h 74 % 0 mm 176 W/m2
10:43 8.9 °C 4.7 °C 988.4 hPa WSW 27.4 km/h 45.1 km/h 75 % 0 mm 190 W/m2
10:47 9.1 °C 4.7 °C 988 hPa WSW 29 km/h 46.7 km/h 74 % 0 mm 132 W/m2
10:52 9.1 °C 4.7 °C 988 hPa WSW 22.5 km/h 33.8 km/h 74 % 0 mm 58 W/m2
10:53 9 °C 4.8 °C 988 hPa WSW 24.1 km/h 45.1 km/h 75 % 0 mm 200 W/m2
10:58 9.1 °C 4.9 °C 988 hPa WSW 25.7 km/h 45.1 km/h 75 % 0 mm 207 W/m2
10:59 9.1 °C 4.9 °C 988 hPa WSW 25.7 km/h 45.1 km/h 75 % 0 mm 207 W/m2
11:00 9.1 °C 4.9 °C 988 hPa WSW 22.5 km/h 38.6 km/h 75 % 0 mm 214 W/m2
11:04 9.2 °C 5.2 °C 988 hPa WSW 25.7 km/h 43.5 km/h 76 % 0 mm 214 W/m2
11:09 9.3 °C 5.1 °C 988 hPa WSW 30.6 km/h 40.2 km/h 75 % 0 mm 204 W/m2
11:14 9.4 °C 5.2 °C 988.4 hPa SW 30.6 km/h 45.1 km/h 75 % 0 mm 230 W/m2
11:19 9.5 °C 4.9 °C 988.4 hPa WSW 27.4 km/h 45.1 km/h 73 % 0 mm 236 W/m2
11:22 9.6 °C 5 °C 988.4 hPa WSW 30.6 km/h 54.7 km/h 73 % 0 mm 237 W/m2
11:27 9.6 °C 4.8 °C 988.4 hPa SW 29 km/h 49.9 km/h 72 % 0 mm 236 W/m2
11:29 9.7 °C 4.7 °C 988.4 hPa SW 32.2 km/h 49.9 km/h 71 % 0 mm 239 W/m2
11:32 9.7 °C 4.3 °C 988.4 hPa WSW 33.8 km/h 54.7 km/h 69 % 0 mm 239 W/m2
11:36 9.8 °C 4.4 °C 988.4 hPa WSW 24.1 km/h 38.6 km/h 69 % 0 mm 243 W/m2
11:41 9.8 °C 4.2 °C 988.4 hPa WSW 30.6 km/h 41.8 km/h 68 % 0 mm 246 W/m2
11:42 9.8 °C 4.2 °C 988.4 hPa WSW 30.6 km/h 48.3 km/h 68 % 0 mm 243 W/m2
11:47 9.9 °C 4.1 °C 988 hPa WSW 30.6 km/h 49.9 km/h 67 % 0 mm 248 W/m2
11:52 9.9 °C 4.1 °C 988.4 hPa WSW 27.4 km/h 48.3 km/h 67 % 0 mm 244 W/m2
11:53 9.9 °C 4.1 °C 988.4 hPa WSW 30.6 km/h 54.7 km/h 67 % 0 mm 246 W/m2
11:54 9.9 °C 4.1 °C 988.4 hPa SW 30.6 km/h 54.7 km/h 67 % 0 mm 246 W/m2
11:59 9.9 °C 3.8 °C 988.4 hPa WSW 33.8 km/h 57.9 km/h 66 % 0 mm 248 W/m2
12:00 9.9 °C 3.8 °C 988.4 hPa WSW 33.8 km/h 57.9 km/h 66 % 0 mm 246 W/m2
12:04 9.9 °C 3.8 °C 988.4 hPa WSW 33.8 km/h 59.5 km/h 66 % 0 mm 248 W/m2
12:07 9.9 °C 4.1 °C 988 hPa WSW 33.8 km/h 48.3 km/h 67 % 0 mm 244 W/m2
12:12 9.9 °C 4.1 °C 988 hPa WSW 29 km/h 43.5 km/h 67 % 0 mm 246 W/m2
12:17 9.9 °C 4.1 °C 988 hPa WSW 33.8 km/h 49.9 km/h 67 % 0 mm 237 W/m2
12:18 9.9 °C 4.1 °C 988 hPa WSW 29 km/h 45.1 km/h 67 % 0 mm 239 W/m2
12:23 10 °C 4.2 °C 988 hPa WSW 30.6 km/h 45.1 km/h 67 % 0 mm 243 W/m2
12:25 10 °C 4.2 °C 988 hPa WSW 32.2 km/h 51.5 km/h 67 % 0 mm 241 W/m2
12:30 10 °C 4.2 °C 988 hPa WSW 27.4 km/h 40.2 km/h 67 % 0 mm 239 W/m2
12:35 9.9 °C 4.1 °C 988.4 hPa WSW 32.2 km/h 49.9 km/h 67 % 0 mm 241 W/m2
12:36 9.9 °C 4.1 °C 988.4 hPa WSW 32.2 km/h 49.9 km/h 67 % 0 mm 241 W/m2
12:37 9.9 °C 4.3 °C 988.4 hPa WSW 30.6 km/h 46.7 km/h 68 % 0 mm 236 W/m2
12:42 10 °C 4.3 °C 988.4 hPa WSW 29 km/h 41.8 km/h 68 % 0 mm 236 W/m2
12:43 10 °C 4.3 °C 988.4 hPa SW 30.6 km/h 43.5 km/h 68 % 0 mm 234 W/m2
12:45 10 °C 4.6 °C 988 hPa SW 25.7 km/h 43.5 km/h 69 % 0 mm 202 W/m2
12:49 9.9 °C 4.7 °C 988 hPa SW 24.1 km/h 41.8 km/h 70 % 0 mm 132 W/m2
12:54 9.7 °C 4.7 °C 988 hPa SW 29 km/h 43.5 km/h 71 % 0 mm 60 W/m2
12:56 9.6 °C 4.8 °C 988 hPa WSW 25.7 km/h 37 km/h 72 % 0 mm 77 W/m2
13:01 9.4 °C 4.8 °C 988.4 hPa SW 22.5 km/h 37 km/h 73 % 0 mm 102 W/m2
13:02 9.3 °C 4.7 °C 988.4 hPa SW 24.1 km/h 37 km/h 73 % 0 mm 91 W/m2
13:07 9.3 °C 4.7 °C 988.4 hPa WSW 24.1 km/h 38.6 km/h 73 % 0 mm 95 W/m2
13:09 9.3 °C 4.9 °C 988.4 hPa WSW 20.9 km/h 37 km/h 74 % 0 mm 104 W/m2
13:14 9.3 °C 4.7 °C 988.4 hPa SW 30.6 km/h 43.5 km/h 73 % 0 mm 181 W/m2
13:16 9.4 °C 5 °C 988.4 hPa WSW 27.4 km/h 41.8 km/h 74 % 0 mm 169 W/m2
13:21 9.4 °C 4.8 °C 988.4 hPa WSW 20.9 km/h 32.2 km/h 73 % 0 mm 142 W/m2
13:25 9.4 °C 5 °C 988 hPa WSW 27.4 km/h 38.6 km/h 74 % 0 mm 171 W/m2
13:30 9.4 °C 4.8 °C 988 hPa SW 25.7 km/h 35.4 km/h 73 % 0 mm 132 W/m2
13:35 9.4 °C 4.8 °C 988 hPa WSW 22.5 km/h 38.6 km/h 73 % 0 mm 121 W/m2
13:36 9.4 °C 4.8 °C 988 hPa WSW 24.1 km/h 38.6 km/h 73 % 0 mm 116 W/m2
13:40 9.4 °C 4.8 °C 988 hPa SW 24.1 km/h 37 km/h 73 % 0 mm 116 W/m2
13:43 9.3 °C 4.9 °C 988 hPa SW 17.7 km/h 30.6 km/h 74 % 0 mm 97 W/m2
13:46 9.3 °C 4.9 °C 988 hPa SW 22.5 km/h 33.8 km/h 74 % 0 mm 100 W/m2
13:51 9.3 °C 4.9 °C 988 hPa WSW 27.4 km/h 38.6 km/h 74 % 0 mm 95 W/m2
13:52 9.3 °C 4.9 °C 988 hPa WSW 25.7 km/h 38.6 km/h 74 % 0 mm 98 W/m2
13:53 9.3 °C 4.9 °C 988 hPa WSW 24.1 km/h 38.6 km/h 74 % 0 mm 95 W/m2
13:58 9.2 °C 4.8 °C 987.7 hPa WSW 24.1 km/h 38.6 km/h 74 % 0 mm 72 W/m2
13:59 9.2 °C 4.8 °C 987.7 hPa WSW 24.1 km/h 38.6 km/h 74 % 0 mm 72 W/m2
14:04 9.2 °C 4.8 °C 987.7 hPa SW 27.4 km/h 43.5 km/h 74 % 0 mm 72 W/m2
14:05 9.2 °C 4.8 °C 987.7 hPa SW 27.4 km/h 43.5 km/h 74 % 0 mm 72 W/m2
14:09 9.1 °C 4.7 °C 987.7 hPa SW 30.6 km/h 48.3 km/h 74 % 0 mm 72 W/m2
14:14 9.1 °C 4.9 °C 987.4 hPa SW 25.7 km/h 37 km/h 75 % 0 mm 84 W/m2
14:16 9.1 °C 4.9 °C 987.4 hPa SW 24.1 km/h 37 km/h 75 % 0 mm 98 W/m2
14:21 9.1 °C 4.9 °C 987.4 hPa SW 22.5 km/h 38.6 km/h 75 % 0 mm 67 W/m2
14:26 9 °C 4.8 °C 987.4 hPa WSW 22.5 km/h 32.2 km/h 75 % 0 mm 77 W/m2
14:29 9 °C 4.8 °C 987.4 hPa WSW 20.9 km/h 35.4 km/h 75 % 0 mm 76 W/m2
14:34 8.9 °C 4.7 °C 987.4 hPa WSW 20.9 km/h 30.6 km/h 75 % 0 mm 63 W/m2
14:35 9 °C 4.8 °C 987.4 hPa WSW 19.3 km/h 30.6 km/h 75 % 0 mm 62 W/m2
14:40 9 °C 4.8 °C 987.4 hPa SW 19.3 km/h 30.6 km/h 75 % 0 mm 54 W/m2
14:45 8.9 °C 4.7 °C 987.4 hPa WSW 20.9 km/h 35.4 km/h 75 % 0 mm 51 W/m2
14:46 8.9 °C 4.7 °C 987.4 hPa SW 22.5 km/h 37 km/h 75 % 0 mm 49 W/m2
14:51 8.9 °C 4.7 °C 987.4 hPa SW 22.5 km/h 33.8 km/h 75 % 0 mm 53 W/m2
14:52 9 °C 4.8 °C 987.4 hPa SW 17.7 km/h 32.2 km/h 75 % 0 mm 53 W/m2
14:57 8.9 °C 4.7 °C 987.4 hPa WSW 14.5 km/h 29 km/h 75 % 0 mm 53 W/m2
15:02 8.9 °C 4.7 °C 987.4 hPa SW 16.1 km/h 30.6 km/h 75 % 0 mm 47 W/m2
15:04 8.9 °C 4.7 °C 987 hPa SW 16.1 km/h 24.1 km/h 75 % 0 mm 40 W/m2
15:09 8.8 °C 4.8 °C 987 hPa SW 14.5 km/h 24.1 km/h 76 % 0 mm 23 W/m2
15:10 8.8 °C 4.8 °C 987 hPa SW 16.1 km/h 24.1 km/h 76 % 0 mm 21 W/m2
15:13 8.8 °C 4.8 °C 987 hPa SW 12.9 km/h 19.3 km/h 76 % 0 mm 19 W/m2
15:15 8.8 °C 4.8 °C 987 hPa WSW 14.5 km/h 19.3 km/h 76 % 0 mm 19 W/m2
15:20 8.7 °C 4.7 °C 987 hPa WSW 14.5 km/h 25.7 km/h 76 % 0 mm 11 W/m2
15:25 8.8 °C 4.8 °C 987 hPa SW 12.9 km/h 19.3 km/h 76 % 0 mm 9 W/m2
15:27 8.8 °C 5 °C 987.4 hPa SW 14.5 km/h 22.5 km/h 77 % 0 mm 9 W/m2
15:29 8.8 °C 5 °C 987 hPa SW 16.1 km/h 29 km/h 77 % 0 mm 9 W/m2
15:34 8.7 °C 5.1 °C 987 hPa SW 16.1 km/h 30.6 km/h 78 % 0 mm 7 W/m2
15:36 8.7 °C 5.4 °C 987 hPa SW 22.5 km/h 40.2 km/h 80 % 0 mm 5 W/m2
15:40 8.6 °C 5.5 °C 987.4 hPa SW 20.9 km/h 32.2 km/h 81 % 0 mm 0 W/m2
15:45 8.4 °C 5.7 °C 987 hPa SW 16.1 km/h 29 km/h 83 % 0 mm 0 W/m2
15:46 8.4 °C 5.7 °C 986.7 hPa SW 17.7 km/h 24.1 km/h 83 % 0 mm 0 W/m2
15:51 8.1 °C 5.6 °C 986.7 hPa WSW 17.7 km/h 35.4 km/h 84 % 0.25 mm 0 W/m2
15:56 7.9 °C 5.4 °C 986.3 hPa SW 19.3 km/h 30.6 km/h 84 % 0.25 mm 0 W/m2
15:58 7.9 °C 5.4 °C 986.3 hPa SW 17.7 km/h 30.6 km/h 84 % 0.25 mm 0 W/m2
16:03 7.8 °C 5.3 °C 986.7 hPa SW 19.3 km/h 32.2 km/h 84 % 0.25 mm 0 W/m2
16:06 7.8 °C 5.3 °C 986.7 hPa SW 16.1 km/h 25.7 km/h 84 % 0.25 mm 0 W/m2
16:11 7.7 °C 5.2 °C 986.3 hPa SW 16.1 km/h 24.1 km/h 84 % 0.25 mm 0 W/m2
16:14 7.6 °C 4.9 °C 986.3 hPa SW 19.3 km/h 32.2 km/h 83 % 0.25 mm 0 W/m2
16:19 7.5 °C 4.6 °C 986.7 hPa SW 22.5 km/h 35.4 km/h 82 % 0.25 mm 0 W/m2
16:20 7.5 °C 4.6 °C 986.7 hPa SW 24.1 km/h 40.2 km/h 82 % 0.25 mm 0 W/m2
16:23 7.4 °C 4.5 °C 986.7 hPa WSW 22.5 km/h 35.4 km/h 82 % 0.25 mm 0 W/m2
16:26 7.3 °C 4.4 °C 986.7 hPa SW 24.1 km/h 41.8 km/h 82 % 0.25 mm 0 W/m2
16:30 7.2 °C 4.3 °C 986.7 hPa SW 29 km/h 40.2 km/h 82 % 0.25 mm 0 W/m2
16:33 7.1 °C 4.4 °C 986.7 hPa SW 20.9 km/h 32.2 km/h 83 % 0.25 mm 0 W/m2
16:38 6.8 °C 4.3 °C 986.3 hPa SW 19.3 km/h 32.2 km/h 84 % 0.25 mm 0 W/m2
16:40 6.8 °C 4.4 °C 986.3 hPa SW 17.7 km/h 25.7 km/h 85 % 0.25 mm 0 W/m2
16:42 6.7 °C 4.3 °C 986.3 hPa SW 16.1 km/h 25.7 km/h 85 % 0.25 mm 0 W/m2
16:46 6.7 °C 4.3 °C 986.3 hPa SW 14.5 km/h 24.1 km/h 85 % 0 mm 0 W/m2
16:49 6.6 °C 4.3 °C 986.7 hPa SW 11.3 km/h 20.9 km/h 85 % 0 mm 0 W/m2
16:51 6.6 °C 4.3 °C 986.7 hPa SW 11.3 km/h 17.7 km/h 85 % 0 mm 0 W/m2
16:56 6.6 °C 4.3 °C 986.7 hPa SW 16.1 km/h 24.1 km/h 85 % 0 mm 0 W/m2
16:57 6.6 °C 4.3 °C 986.7 hPa SW 16.1 km/h 24.1 km/h 85 % 0 mm 0 W/m2
17:02 6.6 °C 4.3 °C 986.7 hPa SW 12.9 km/h 22.5 km/h 85 % 0 mm 0 W/m2
17:04 6.6 °C 4.1 °C 986.7 hPa SW 11.3 km/h 20.9 km/h 84 % 0 mm 0 W/m2
17:09 6.5 °C 4.2 °C 986.7 hPa SW 11.3 km/h 16.1 km/h 85 % 0 mm 0 W/m2
17:12 6.5 °C 4.2 °C 986.3 hPa SW 8 km/h 11.3 km/h 85 % 0 mm 0 W/m2
17:15 6.4 °C 4.1 °C 986.3 hPa SW 8 km/h 12.9 km/h 85 % 0 mm 0 W/m2
17:20 6.4 °C 4.1 °C 986.3 hPa SW 3.2 km/h 6.4 km/h 85 % 0 mm 0 W/m2
17:22 6.3 °C 3.9 °C 986.3 hPa SW 1.6 km/h 3.2 km/h 85 % 0 mm 0 W/m2
17:27 6.3 °C 3.9 °C 986.3 hPa SW 9.7 km/h 14.5 km/h 85 % 0 mm 0 W/m2
17:32 6.4 °C 4.1 °C 986.3 hPa SW 8 km/h 11.3 km/h 85 % 0 mm 0 W/m2
17:35 6.4 °C 4.1 °C 986.3 hPa SW 4.8 km/h 11.3 km/h 85 % 0 mm 0 W/m2
17:41 6.3 °C 3.9 °C 986.3 hPa SW 1.6 km/h 3.2 km/h 85 % 0 mm 0 W/m2
17:42 6.3 °C 3.9 °C 986.3 hPa Calm     85 % 0 mm 0 W/m2
17:47 6.2 °C 3.9 °C 986.3 hPa SW 3.2 km/h 8 km/h 85 % 0 mm 0 W/m2
17:50 6.1 °C 3.8 °C 986.3 hPa SSW 6.4 km/h 14.5 km/h 85 % 0 mm 0 W/m2
17:55 6 °C 3.8 °C 986.3 hPa South 8 km/h 12.9 km/h 86 % 0 mm 0 W/m2
17:58 6 °C 4 °C 986.3 hPa SSW 9.7 km/h 19.3 km/h 87 % 0 mm 0 W/m2
18:01 6.1 °C 4.1 °C 986 hPa SSW 9.7 km/h 14.5 km/h 87 % 0 mm 0 W/m2
18:06 6.2 °C 4.2 °C 986 hPa SSW 12.9 km/h 20.9 km/h 87 % 0 mm 0 W/m2
18:07 6.2 °C 4.2 °C 986 hPa South 12.9 km/h 17.7 km/h 87 % 0 mm 0 W/m2
18:09 6.3 °C 4.3 °C 986 hPa SSW 12.9 km/h 17.7 km/h 87 % 0 mm 0 W/m2
18:14 6.3 °C 4.3 °C 986 hPa SSW 11.3 km/h 17.7 km/h 87 % 0 mm 0 W/m2
18:16 6.3 °C 4.3 °C 986 hPa SSW 9.7 km/h 14.5 km/h 87 % 0 mm 0 W/m2
18:21 6.3 °C 4.3 °C 986 hPa SSW 12.9 km/h 17.7 km/h 87 % 0 mm 0 W/m2
18:24 6.3 °C 4.3 °C 986 hPa SSW 12.9 km/h 16.1 km/h 87 % 0 mm 0 W/m2
18:29 6.3 °C 4.3 °C 986 hPa SSW 11.3 km/h 17.7 km/h 87 % 0 mm 0 W/m2
18:34 6.2 °C 4.3 °C 986 hPa SW 11.3 km/h 14.5 km/h 88 % 0 mm 0 W/m2
18:37 6.2 °C 4.3 °C 986 hPa SW 12.9 km/h 17.7 km/h 88 % 0 mm 0 W/m2
18:38 6.2 °C 4.3 °C 986 hPa SW 11.3 km/h 17.7 km/h 88 % 0 mm 0 W/m2
18:43 6.2 °C 4.3 °C 986 hPa SW 9.7 km/h 12.9 km/h 88 % 0 mm 0 W/m2
18:48 6.2 °C 4.5 °C 985.7 hPa SW 6.4 km/h 11.3 km/h 89 % 0 mm 0 W/m2
18:49 6.3 °C 4.6 °C 985.7 hPa SW 6.4 km/h 9.7 km/h 89 % 0 mm 0 W/m2
18:53 6.2 °C 4.5 °C 985.7 hPa SW 4.8 km/h 8 km/h 89 % 0.25 mm 0 W/m2
18:57 6.2 °C 4.5 °C 985.7 hPa WSW 9.7 km/h 16.1 km/h 89 % 0.25 mm 0 W/m2
19:02 6.3 °C 4.6 °C 985.7 hPa WSW 9.7 km/h 12.9 km/h 89 % 0.25 mm 0 W/m2
19:04 6.3 °C 4.8 °C 985.7 hPa WSW 9.7 km/h 12.9 km/h 90 % 0.25 mm 0 W/m2
19:09 6.2 °C 4.7 °C 985.7 hPa WSW 9.7 km/h 14.5 km/h 90 % 0.25 mm 0 W/m2
19:10 6.2 °C 4.7 °C 986 hPa WSW 11.3 km/h 14.5 km/h 90 % 0.25 mm 0 W/m2
19:15 6.2 °C 4.7 °C 986 hPa WSW 9.7 km/h 17.7 km/h 90 % 0.25 mm 0 W/m2
19:17 6.2 °C 4.7 °C 986 hPa WSW 11.3 km/h 17.7 km/h 90 % 0.25 mm 0 W/m2
19:22 6.3 °C 4.9 °C 986 hPa WSW 12.9 km/h 24.1 km/h 91 % 0.51 mm 0 W/m2
19:26 6.4 °C 5.1 °C 986.3 hPa WSW 14.5 km/h 29 km/h 91 % 0.51 mm 0 W/m2
19:29 6.3 °C 4.8 °C 986 hPa WSW 22.5 km/h 37 km/h 90 % 1.02 mm 0 W/m2
19:34 6 °C 4.3 °C 985.7 hPa SW 20.9 km/h 41.8 km/h 89 % 1.27 mm 0 W/m2
19:35 5.9 °C 4.2 °C 985.7 hPa SW 22.5 km/h 41.8 km/h 89 % 1.27 mm 0 W/m2
19:40 5.8 °C 4.1 °C 985.3 hPa SW 12.9 km/h 20.9 km/h 89 % 1.27 mm 0 W/m2
19:42 5.8 °C 4.3 °C 985.3 hPa SW 11.3 km/h 17.7 km/h 90 % 1.27 mm 0 W/m2
19:44 5.7 °C 4.2 °C 985.3 hPa SW 11.3 km/h 16.1 km/h 90 % 1.27 mm 0 W/m2
19:50 5.7 °C 4.2 °C 985.3 hPa WSW 14.5 km/h 22.5 km/h 90 % 1.27 mm 0 W/m2
19:51 5.6 °C 4.1 °C 985.7 hPa WSW 14.5 km/h 20.9 km/h 90 % 1.02 mm 0 W/m2
19:53 5.6 °C 4.1 °C 985.7 hPa WSW 14.5 km/h 22.5 km/h 90 % 1.02 mm 0 W/m2
19:58 5.7 °C 4 °C 985.7 hPa WSW 16.1 km/h 20.9 km/h 89 % 1.02 mm 0 W/m2
20:01 5.6 °C 3.9 °C 985.7 hPa WSW 14.5 km/h 20.9 km/h 89 % 1.02 mm 0 W/m2
20:02 5.6 °C 3.9 °C 985.7 hPa WSW 14.5 km/h 24.1 km/h 89 % 1.02 mm 0 W/m2
20:07 5.6 °C 3.9 °C 985.7 hPa SW 9.7 km/h 16.1 km/h 89 % 1.02 mm 0 W/m2
20:09 5.6 °C 3.9 °C 986 hPa SW 9.7 km/h 17.7 km/h 89 % 1.02 mm 0 W/m2
20:14 5.6 °C 3.9 °C 986 hPa WSW 6.4 km/h 14.5 km/h 89 % 1.02 mm 0 W/m2
20:17 5.6 °C 3.9 °C 986 hPa WSW 9.7 km/h 14.5 km/h 89 % 1.02 mm 0 W/m2
20:22 5.6 °C 3.9 °C 986.3 hPa WSW 11.3 km/h 16.1 km/h 89 % 0.76 mm 0 W/m2
20:27 5.6 °C 3.9 °C 986.3 hPa SW 12.9 km/h 19.3 km/h 89 % 0.51 mm 0 W/m2
20:29 5.6 °C 3.9 °C 986.3 hPa WSW 14.5 km/h 22.5 km/h 89 % 0.25 mm 0 W/m2
20:34 5.6 °C 4.1 °C 986.7 hPa West 12.9 km/h 17.7 km/h 90 % 0 mm 0 W/m2
20:36 5.7 °C 4.2 °C 986.7 hPa West 16.1 km/h 33.8 km/h 90 % 0 mm 0 W/m2
20:41 5.6 °C 4.1 °C 987 hPa WSW 20.9 km/h 35.4 km/h 90 % 0 mm 0 W/m2
20:43 5.6 °C 3.9 °C 987 hPa WSW 19.3 km/h 33.8 km/h 89 % 0 mm 0 W/m2
20:48 5.4 °C 3.7 °C 987 hPa West 17.7 km/h 29 km/h 89 % 0 mm 0 W/m2
20:53 5.3 °C 3.8 °C 987 hPa West 12.9 km/h 20.9 km/h 90 % 0 mm 0 W/m2
20:58 5.2 °C 3.7 °C 987 hPa WNW 17.7 km/h 29 km/h 90 % 0 mm 0 W/m2
21:03 5.1 °C 3.6 °C 987.4 hPa West 14.5 km/h 25.7 km/h 90 % 0 mm 0 W/m2
21:04 5.1 °C 3.6 °C 987.4 hPa West 16.1 km/h 25.7 km/h 90 % 0 mm 0 W/m2
21:09 5 °C 3.5 °C 987.4 hPa West 11.3 km/h 17.7 km/h 90 % 0 mm 0 W/m2
21:14 4.9 °C 3.4 °C 987.4 hPa West 11.3 km/h 16.1 km/h 90 % 0 mm 0 W/m2
21:18 4.9 °C 3.6 °C 987.4 hPa West 14.5 km/h 24.1 km/h 91 % 0 mm 0 W/m2
21:23 4.8 °C 3.3 °C 987.4 hPa West 16.1 km/h 22.5 km/h 90 % 0 mm 0 W/m2
21:28 4.8 °C 3.4 °C 987.4 hPa West 11.3 km/h 16.1 km/h 91 % 0 mm 0 W/m2
21:29 4.8 °C 3.4 °C 987.4 hPa West 11.3 km/h 16.1 km/h 91 % 0 mm 0 W/m2
21:34 4.8 °C 3.4 °C 987.4 hPa West 12.9 km/h 19.3 km/h 91 % 0 mm 0 W/m2
21:36 4.8 °C 3.4 °C 987.4 hPa West 16.1 km/h 22.5 km/h 91 % 0 mm 0 W/m2
21:38 4.7 °C 3.3 °C 987.4 hPa West 12.9 km/h 20.9 km/h 91 % 0 mm 0 W/m2
21:43 4.7 °C 3.3 °C 987.4 hPa West 12.9 km/h 19.3 km/h 91 % 0 mm 0 W/m2
21:48 4.7 °C 3.3 °C 987.4 hPa WSW 9.7 km/h 16.1 km/h 91 % 0 mm 0 W/m2
21:53 4.7 °C 3.3 °C 987.4 hPa West 11.3 km/h 19.3 km/h 91 % 0 mm 0 W/m2
21:58 4.8 °C 3.6 °C 987.7 hPa West 11.3 km/h 20.9 km/h 92 % 0.25 mm 0 W/m2
21:59 4.8 °C 3.6 °C 987.7 hPa West 9.7 km/h 16.1 km/h 92 % 0.25 mm 0 W/m2
22:03 4.9 °C 3.7 °C 987.7 hPa West 20.9 km/h 32.2 km/h 92 % 0.25 mm 0 W/m2
22:04 4.9 °C 3.7 °C 987.7 hPa West 16.1 km/h 25.7 km/h 92 % 0.25 mm 0 W/m2
22:09 5.1 °C 3.9 °C 988 hPa WNW 14.5 km/h 20.9 km/h 92 % 0.25 mm 0 W/m2
22:10 5.1 °C 3.9 °C 988 hPa WNW 12.9 km/h 20.9 km/h 92 % 0.25 mm 0 W/m2
22:15 5.3 °C 4.1 °C 988 hPa West 17.7 km/h 29 km/h 92 % 0.25 mm 0 W/m2
22:16 5.3 °C 4.1 °C 988 hPa WNW 17.7 km/h 29 km/h 92 % 0.25 mm 0 W/m2
22:21 5.4 °C 4.1 °C 988.4 hPa West 19.3 km/h 35.4 km/h 91 % 0.25 mm 0 W/m2
22:23 5.4 °C 4.1 °C 988.4 hPa West 27.4 km/h 45.1 km/h 91 % 0.25 mm 0 W/m2
22:26 5.4 °C 3.9 °C 988.4 hPa West 22.5 km/h 41.8 km/h 90 % 0.25 mm 0 W/m2
22:30 5.3 °C 3.8 °C 988.4 hPa WNW 17.7 km/h 25.7 km/h 90 % 0.25 mm 0 W/m2
22:31 5.3 °C 3.8 °C 988.4 hPa West 19.3 km/h 32.2 km/h 90 % 0.25 mm 0 W/m2
22:36 5.3 °C 3.8 °C 988.7 hPa WNW 22.5 km/h 33.8 km/h 90 % 0.25 mm 0 W/m2
22:41 5.3 °C 3.8 °C 988.7 hPa WNW 17.7 km/h 29 km/h 90 % 0.25 mm 0 W/m2
22:42 5.3 °C 3.8 °C 988.7 hPa West 17.7 km/h 30.6 km/h 90 % 0.25 mm 0 W/m2
22:47 5.4 °C 3.7 °C 989.1 hPa WNW 27.4 km/h 40.2 km/h 89 % 0.25 mm 0 W/m2
22:49 5.4 °C 3.7 °C 989.1 hPa WNW 24.1 km/h 37 km/h 89 % 0.25 mm 0 W/m2
22:55 5.5 °C 3.5 °C 989.4 hPa WNW 29 km/h 41.8 km/h 87 % 0 mm 0 W/m2
22:56 5.5 °C 3.5 °C 989.4 hPa WNW 27.4 km/h 46.7 km/h 87 % 0 mm 0 W/m2
23:01 5.5 °C 3.3 °C 989.4 hPa WNW 24.1 km/h 37 km/h 86 % 0 mm 0 W/m2
23:03 5.6 °C 3.4 °C 989.4 hPa WNW 22.5 km/h 40.2 km/h 86 % 0 mm 0 W/m2
23:04 5.5 °C 3.3 °C 989.4 hPa WNW 20.9 km/h 40.2 km/h 86 % 0 mm 0 W/m2
23:09 5.5 °C 3.3 °C 989.7 hPa WNW 24.1 km/h 40.2 km/h 86 % 0 mm 0 W/m2
23:12 5.5 °C 3.3 °C 989.7 hPa WNW 22.5 km/h 40.2 km/h 86 % 0 mm 0 W/m2
23:17 5.4 °C 3.2 °C 989.7 hPa West 19.3 km/h 33.8 km/h 86 % 0 mm 0 W/m2
23:22 5.4 °C 3.2 °C 989.7 hPa West 17.7 km/h 29 km/h 86 % 0 mm 0 W/m2
23:27 5.4 °C 3.2 °C 989.7 hPa West 17.7 km/h 30.6 km/h 86 % 0 mm 0 W/m2
23:28 5.4 °C 3.2 °C 989.7 hPa West 17.7 km/h 30.6 km/h 86 % 0 mm 0 W/m2
23:33 5.3 °C 3.2 °C 989.7 hPa West 22.5 km/h 33.8 km/h 86 % 0 mm 0 W/m2
23:36 5.3 °C 3.2 °C 989.7 hPa West 22.5 km/h 32.2 km/h 86 % 0 mm 0 W/m2
23:39 5.4 °C 3.2 °C 990.1 hPa West 24.1 km/h 40.2 km/h 86 % 0 mm 0 W/m2
23:42 5.4 °C 3.2 °C 990.1 hPa West 22.5 km/h 35.4 km/h 86 % 0 mm 0 W/m2
23:47 5.4 °C 3.2 °C 990.4 hPa West 27.4 km/h 40.2 km/h 86 % 0 mm 0 W/m2
23:48 5.4 °C 3.2 °C 990.4 hPa West 27.4 km/h 40.2 km/h 86 % 0 mm 0 W/m2
23:53 5.4 °C 3.2 °C 990.4 hPa West 22.5 km/h 40.2 km/h 86 % 0 mm 0 W/m2
23:57 5.4 °C 3.2 °C 990.4 hPa West 24.1 km/h 35.4 km/h 86 % 0 mm 0 W/m2
Delerius-Weather
Compliments of Weather Underground - 3 mb

Data updates at regular intervals.